Time;durP1;ratioP1;P1;durP2;ratioP2;P2;SDS_P1;SDS_P2;PMS_P1;PMS_P2;Temp;Humidity;BMP_temperature;BMP_pressure;BME280_temperature;BME280_humidity;BME280_pressure;Samples;Min_cycle;Max_cycle;Signal;HPM_P1;HPM_P2
2021/05/21 00:00:18;;;;;;;58.00;2.70;;;10.40;1.00;;;;;;5132847;27;20535;-65
2021/05/21 00:02:44;;;;;;;57.83;2.80;;;10.40;1.00;;;;;;5132642;27;20498;-65
2021/05/21 00:05:11;;;;;;;57.60;2.53;;;10.40;1.00;;;;;;5132886;27;20482;-66
2021/05/21 00:07:38;;;;;;;57.60;2.37;;;10.40;1.00;;;;;;5132860;27;20450;-65
2021/05/21 00:10:06;;;;;;;57.30;2.33;;;10.40;1.00;;;;;;5132603;27;20532;-65
2021/05/21 00:12:32;;;;;;;57.57;2.20;;;10.40;1.00;;;;;;5132413;27;20471;-65
2021/05/21 00:14:59;;;;;;;57.33;2.30;;;10.40;1.00;;;;;;5132538;27;20584;-66
2021/05/21 00:17:25;;;;;;;57.57;2.50;;;10.40;1.00;;;;;;5132879;27;20448;-66
2021/05/21 00:19:52;;;;;;;57.67;2.50;;;10.40;1.00;;;;;;5131972;27;20527;-67
2021/05/21 00:22:18;;;;;;;57.33;2.20;;;10.40;1.00;;;;;;5132429;27;20499;-65
2021/05/21 00:24:45;;;;;;;57.60;2.40;;;10.40;1.00;;;;;;5129929;27;20478;-67
2021/05/21 00:27:12;;;;;;;57.80;2.60;;;10.40;1.00;;;;;;5132617;27;20532;-67
2021/05/21 00:29:38;;;;;;;57.57;2.33;;;10.40;1.00;;;;;;5132704;27;20476;-66
2021/05/21 00:32:05;;;;;;;57.37;2.30;;;10.50;1.00;;;;;;5132414;27;20911;-66
2021/05/21 00:34:31;;;;;;;58.03;2.93;;;10.50;1.00;;;;;;5132685;27;20542;-66
2021/05/21 00:36:58;;;;;;;57.47;2.20;;;10.50;1.00;;;;;;5132475;27;20480;-66
2021/05/21 00:39:24;;;;;;;57.47;2.40;;;10.60;1.00;;;;;;5132488;27;20549;-66
2021/05/21 00:41:51;;;;;;;57.87;2.77;;;10.60;1.00;;;;;;5132355;27;20729;-66
2021/05/21 00:44:18;;;;;;;57.53;2.60;;;10.60;1.00;;;;;;5132607;27;20581;-66
2021/05/21 00:46:44;;;;;;;57.60;2.50;;;10.70;1.00;;;;;;5132413;27;20479;-67
2021/05/21 00:49:10;;;;;;;57.70;2.50;;;10.60;1.00;;;;;;5132903;27;20533;-66
2021/05/21 00:51:37;;;;;;;58.43;3.00;;;10.70;1.00;;;;;;5132110;27;21028;-66
2021/05/21 00:54:04;;;;;;;57.37;2.43;;;10.70;1.00;;;;;;5131718;27;20534;-65
2021/05/21 00:56:33;;;;;;;57.80;2.70;;;10.70;1.00;;;;;;5128879;27;20862;-67
2021/05/21 00:59:00;;;;;;;57.50;2.43;;;10.70;1.00;;;;;;5132289;27;20539;-67
2021/05/21 01:01:30;;;;;;;58.10;3.13;;;10.70;1.00;;;;;;5132215;27;20514;-66
2021/05/21 01:03:57;;;;;;;57.57;2.80;;;10.70;1.00;;;;;;5131761;27;20444;-67
2021/05/21 01:06:23;;;;;;;57.53;2.50;;;10.70;1.00;;;;;;5132095;27;20581;-67
2021/05/21 01:08:49;;;;;;;57.33;2.40;;;10.70;1.00;;;;;;5132068;27;20486;-65
2021/05/21 01:11:16;;;;;;;57.27;2.43;;;10.70;1.00;;;;;;5132337;27;20484;-66
2021/05/21 01:13:42;;;;;;;57.60;2.60;;;10.70;1.00;;;;;;5131826;27;20757;-66
2021/05/21 01:16:10;;;;;;;57.37;2.30;;;10.70;1.00;;;;;;5132091;27;20540;-66
2021/05/21 01:18:36;;;;;;;57.57;2.50;;;10.70;1.00;;;;;;5132116;27;20445;-67
2021/05/21 01:21:04;;;;;;;57.63;2.40;;;10.80;1.00;;;;;;5131666;27;20447;-66
2021/05/21 01:23:31;;;;;;;57.60;2.43;;;10.80;1.00;;;;;;5131668;27;20479;-66
2021/05/21 01:25:57;;;;;;;57.13;2.33;;;10.70;1.00;;;;;;5131074;27;20449;-67
2021/05/21 01:28:24;;;;;;;57.90;2.60;;;10.70;1.00;;;;;;5129439;27;20451;-67
2021/05/21 01:30:51;;;;;;;57.27;2.30;;;10.70;1.00;;;;;;5134038;27;20479;-66
2021/05/21 01:33:18;;;;;;;57.40;2.30;;;10.70;1.00;;;;;;5135214;27;20592;-67
2021/05/21 01:35:45;;;;;;;57.70;2.60;;;10.70;1.00;;;;;;5135455;27;20487;-67
2021/05/21 01:38:13;;;;;;;57.40;2.70;;;10.70;1.00;;;;;;5135511;27;20486;-67
2021/05/21 01:40:40;;;;;;;57.37;2.40;;;10.70;1.00;;;;;;5135906;27;20858;-66
2021/05/21 01:43:06;;;;;;;57.37;2.37;;;10.70;1.00;;;;;;5135155;27;20555;-67
2021/05/21 01:45:33;;;;;;;57.40;2.33;;;10.60;1.00;;;;;;5135501;27;20960;-67
2021/05/21 01:48:00;;;;;;;57.30;2.43;;;10.60;1.00;;;;;;5135562;27;20979;-67
2021/05/21 01:50:27;;;;;;;57.57;2.20;;;10.50;1.00;;;;;;5135618;27;20511;-67
2021/05/21 01:52:53;;;;;;;57.37;2.30;;;10.50;1.00;;;;;;5135486;27;20551;-66
2021/05/21 01:55:20;;;;;;;57.23;2.30;;;10.50;1.00;;;;;;5135506;27;20446;-66
2021/05/21 01:57:47;;;;;;;57.27;2.37;;;10.50;1.00;;;;;;5131858;27;20987;-66
2021/05/21 02:00:14;;;;;;;57.37;2.37;;;10.50;1.00;;;;;;5135083;27;20545;-66
2021/05/21 02:02:41;;;;;;;57.63;2.60;;;10.40;1.00;;;;;;5134830;27;20562;-67
2021/05/21 02:05:08;;;;;;;58.40;3.00;;;10.40;1.00;;;;;;5135078;27;20487;-66
2021/05/21 02:07:35;;;;;;;57.67;2.53;;;10.40;1.00;;;;;;5135246;27;20444;-65
2021/05/21 02:10:04;;;;;;;57.67;2.50;;;10.40;1.00;;;;;;5135457;27;20590;-67
2021/05/21 02:12:34;;;;;;;57.57;2.50;;;10.40;1.00;;;;;;5134798;27;20496;-66
2021/05/21 02:15:02;;;;;;;57.37;2.40;;;10.30;1.00;;;;;;5134902;27;20451;-67
2021/05/21 02:17:29;;;;;;;57.80;2.97;;;10.30;1.00;;;;;;5134992;27;20488;-67
2021/05/21 02:19:58;;;;;;;57.77;2.60;;;10.40;1.00;;;;;;5135304;27;20531;-67
2021/05/21 02:22:25;;;;;;;57.50;2.50;;;10.30;1.00;;;;;;5134761;27;20474;-67
2021/05/21 02:24:54;;;;;;;58.20;2.90;;;10.30;1.00;;;;;;5134862;27;20543;-67
2021/05/21 02:27:21;;;;;;;57.33;2.40;;;10.30;1.00;;;;;;5135076;27;20947;-67
2021/05/21 02:29:48;;;;;;;57.37;2.40;;;10.20;1.00;;;;;;5131008;27;20547;-66
2021/05/21 02:32:14;;;;;;;57.60;2.60;;;10.20;1.00;;;;;;5134310;27;20906;-67
2021/05/21 02:34:41;;;;;;;57.37;2.33;;;10.20;1.00;;;;;;5134452;27;21011;-67
2021/05/21 02:37:07;;;;;;;57.40;3.03;;;10.20;1.00;;;;;;5134911;27;20532;-68
2021/05/21 02:39:34;;;;;;;57.17;2.27;;;10.20;1.00;;;;;;5134666;27;20560;-67
2021/05/21 02:42:00;;;;;;;57.67;2.50;;;10.10;1.00;;;;;;5133214;27;20470;-67
2021/05/21 02:44:27;;;;;;;57.37;2.40;;;10.10;1.00;;;;;;5134327;27;20887;-67
2021/05/21 02:46:54;;;;;;;57.33;2.50;;;10.10;1.00;;;;;;5134684;27;20443;-67
2021/05/21 02:49:21;;;;;;;57.50;2.40;;;10.10;1.00;;;;;;5134466;27;20496;-67
2021/05/21 02:51:47;;;;;;;57.57;2.50;;;10.10;1.00;;;;;;5134166;27;20844;-66
2021/05/21 02:54:14;;;;;;;57.40;2.50;;;10.20;1.00;;;;;;5134068;27;20815;-68
2021/05/21 02:56:40;;;;;;;57.70;2.60;;;10.20;1.00;;;;;;5134313;27;20447;-65
2021/05/21 02:59:07;;;;;;;57.27;2.43;;;10.10;1.00;;;;;;5133783;27;20476;-68
2021/05/21 03:01:33;;;;;;;57.23;2.50;;;10.20;1.00;;;;;;5130872;27;20554;-67
2021/05/21 03:04:01;;;;;;;57.77;2.80;;;10.10;1.00;;;;;;5133313;27;20975;-67
2021/05/21 03:06:27;;;;;;;57.67;2.47;;;10.20;1.00;;;;;;5134091;27;20533;-67
2021/05/21 03:08:53;;;;;;;58.10;2.60;;;10.20;1.00;;;;;;5133896;27;20534;-67
2021/05/21 03:11:20;;;;;;;57.37;2.40;;;10.20;1.00;;;;;;5133722;27;20575;-66
2021/05/21 03:13:47;;;;;;;57.67;2.50;;;10.20;1.00;;;;;;5133909;27;20452;-68
2021/05/21 03:16:13;;;;;;;57.70;2.67;;;10.30;1.00;;;;;;5133637;27;20449;-67
2021/05/21 03:18:39;;;;;;;57.37;2.50;;;10.30;1.00;;;;;;5133669;27;20530;-67
2021/05/21 03:21:07;;;;;;;57.50;2.30;;;10.30;1.00;;;;;;5133965;27;20590;-66
2021/05/21 03:23:33;;;;;;;57.03;2.20;;;10.40;1.00;;;;;;5133228;27;20452;-67
2021/05/21 03:26:00;;;;;;;57.27;2.30;;;10.50;1.00;;;;;;5133229;27;20963;-67
2021/05/21 03:28:27;;;;;;;57.33;2.33;;;10.50;1.00;;;;;;5133791;27;20489;-68
2021/05/21 03:30:53;;;;;;;57.27;2.27;;;10.60;1.00;;;;;;5131563;27;20487;-66
2021/05/21 03:33:20;;;;;;;57.50;2.57;;;10.60;1.00;;;;;;5131779;27;20476;-67
2021/05/21 03:35:46;;;;;;;57.17;2.33;;;10.60;1.00;;;;;;5133252;27;20482;-68
2021/05/21 03:38:13;;;;;;;57.67;2.40;;;10.60;1.00;;;;;;5133837;27;20440;-66
2021/05/21 03:40:41;;;;;;;57.70;3.17;;;10.70;1.00;;;;;;5133444;27;20493;-66
2021/05/21 03:43:08;;;;;;;57.20;2.30;;;10.70;1.00;;;;;;5132901;27;20475;-66
2021/05/21 03:45:35;;;;;;;57.23;2.20;;;10.70;1.00;;;;;;5132924;27;20523;-66
2021/05/21 03:48:02;;;;;;;56.97;2.30;;;10.80;1.00;;;;;;5133285;27;20454;-68
2021/05/21 03:50:28;;;;;;;57.27;2.40;;;10.90;1.00;;;;;;5133364;27;20519;-66
2021/05/21 03:52:54;;;;;;;57.70;2.50;;;11.00;1.00;;;;;;5132715;27;20870;-67
2021/05/21 03:55:22;;;;;;;57.60;2.60;;;11.10;1.00;;;;;;5132786;27;20531;-66
2021/05/21 03:57:49;;;;;;;57.37;2.30;;;11.20;1.00;;;;;;5133278;27;20584;-67
2021/05/21 04:00:18;;;;;;;57.23;2.30;;;11.30;1.00;;;;;;5133036;27;20444;-66
2021/05/21 04:02:45;;;;;;;57.27;2.13;;;11.40;1.00;;;;;;5129989;27;20555;-66
2021/05/21 04:05:12;;;;;;;57.27;2.10;;;11.50;1.00;;;;;;5132650;27;20457;-66
2021/05/21 04:07:39;;;;;;;57.27;2.30;;;11.50;1.00;;;;;;5133027;27;20535;-66
2021/05/21 04:10:06;;;;;;;57.30;2.30;;;11.60;1.00;;;;;;5132970;27;20483;-66
2021/05/21 04:12:33;;;;;;;57.27;2.23;;;11.60;1.00;;;;;;5132477;27;20560;-67
2021/05/21 04:14:59;;;;;;;57.17;2.30;;;11.70;1.00;;;;;;5132709;27;20451;-67
2021/05/21 04:17:26;;;;;;;57.20;2.30;;;11.70;1.00;;;;;;5133128;27;20851;-66
2021/05/21 04:19:52;;;;;;;57.20;2.40;;;11.60;1.00;;;;;;5132831;27;20867;-67
2021/05/21 04:22:19;;;;;;;57.17;2.13;;;11.60;1.00;;;;;;5132143;27;20465;-66
2021/05/21 04:24:45;;;;;;;57.37;2.30;;;11.60;1.00;;;;;;5132985;27;20527;-66
2021/05/21 04:27:11;;;;;;;57.37;2.23;;;11.60;1.00;;;;;;5132853;27;20523;-67
2021/05/21 04:29:39;;;;;;;57.27;2.37;;;11.60;1.00;;;;;;5132555;27;20531;-67
2021/05/21 04:32:06;;;;;;;57.37;2.30;;;11.70;1.00;;;;;;5132156;27;20485;-67
2021/05/21 04:34:33;;;;;;;58.10;2.40;;;11.70;1.00;;;;;;5119013;27;20964;-67
2021/05/21 04:36:59;;;;;;;57.40;2.20;;;11.70;1.00;;;;;;5124738;27;20531;-66
2021/05/21 04:39:26;;;;;;;57.27;2.20;;;11.60;1.00;;;;;;5132638;27;20496;-67
2021/05/21 04:41:52;;;;;;;57.43;2.33;;;11.60;1.00;;;;;;5132186;27;20547;-67
2021/05/21 04:44:19;;;;;;;57.60;2.70;;;11.70;1.00;;;;;;5132474;27;20538;-66
2021/05/21 04:46:46;;;;;;;56.93;2.40;;;11.70;1.00;;;;;;5132262;27;20996;-66
2021/05/21 04:49:31;;;;;;;57.43;2.40;;;11.70;1.00;;;;;;5132382;27;20528;-66
2021/05/21 04:51:59;;;;;;;57.17;2.50;;;11.80;1.00;;;;;;5132328;27;20488;-66
2021/05/21 04:54:25;;;;;;;57.23;2.50;;;11.80;1.00;;;;;;5132274;27;20441;-66
2021/05/21 04:56:52;;;;;;;57.17;2.37;;;11.90;1.00;;;;;;5132360;27;20531;-66
2021/05/21 04:59:19;;;;;;;57.17;2.40;;;11.90;1.00;;;;;;5132214;27;20450;-66
2021/05/21 05:01:46;;;;;;;57.17;2.33;;;11.90;1.00;;;;;;5132025;27;20511;-67
2021/05/21 05:04:12;;;;;;;57.40;2.50;;;11.90;1.00;;;;;;5130505;27;20523;-66
2021/05/21 05:06:38;;;;;;;57.47;2.47;;;11.90;1.00;;;;;;5133803;27;20450;-66
2021/05/21 05:09:05;;;;;;;57.30;2.30;;;12.00;1.00;;;;;;5136432;27;20543;-67
2021/05/21 05:11:32;;;;;;;57.40;2.33;;;12.00;1.00;;;;;;5136248;27;21011;-67
2021/05/21 05:13:58;;;;;;;57.57;2.57;;;12.00;1.00;;;;;;5136032;27;20446;-65
2021/05/21 05:16:24;;;;;;;57.80;2.80;;;12.00;1.00;;;;;;5135991;27;20540;-66
2021/05/21 05:18:53;;;;;;;57.27;2.57;;;12.00;1.00;;;;;;5136287;27;20440;-67
2021/05/21 05:21:20;;;;;;;57.10;2.40;;;12.10;1.00;;;;;;5136301;27;20544;-67
2021/05/21 05:23:48;;;;;;;58.10;2.50;;;12.10;1.00;;;;;;5136025;27;20486;-66
2021/05/21 05:26:14;;;;;;;56.97;2.30;;;12.20;1.00;;;;;;5136084;27;20548;-65
2021/05/21 05:28:42;;;;;;;57.17;2.20;;;12.20;1.00;;;;;;5136130;27;20476;-66
2021/05/21 05:31:09;;;;;;;57.10;2.20;;;12.30;1.00;;;;;;5135876;27;20571;-66
2021/05/21 05:33:35;;;;;;;57.40;2.30;;;12.40;1.00;;;;;;5135583;27;20446;-69
2021/05/21 05:36:03;;;;;;;57.37;2.40;;;12.40;1.00;;;;;;5132623;27;20539;-67
2021/05/21 05:38:30;;;;;;;57.13;2.60;;;12.50;1.00;;;;;;5135548;27;20455;-67
2021/05/21 05:40:57;;;;;;;57.10;2.23;;;12.50;1.00;;;;;;5135707;27;21088;-66
2021/05/21 05:43:23;;;;;;;57.50;2.57;;;12.50;1.00;;;;;;5135317;27;20947;-67
2021/05/21 05:45:50;;;;;;;57.37;2.27;;;12.50;1.00;;;;;;5135466;27;20526;-67
2021/05/21 05:48:18;;;;;;;57.23;2.33;;;12.50;1.00;;;;;;5136154;27;20454;-67
2021/05/21 05:50:45;;;;;;;57.90;2.40;;;12.50;1.00;;;;;;5135584;27;21033;-68
2021/05/21 05:53:12;;;;;;;57.37;2.47;;;12.50;1.00;;;;;;5135177;27;21020;-67
2021/05/21 05:55:40;;;;;;;57.17;2.30;;;12.60;1.00;;;;;;5135202;27;20476;-67
2021/05/21 05:58:07;;;;;;;57.60;2.23;;;12.70;1.00;;;;;;5135874;27;20448;-68
2021/05/21 06:00:34;;;;;;;57.80;3.23;;;12.70;1.00;;;;;;5135279;27;20453;-67
2021/05/21 06:03:05;;;;;;;57.47;2.37;;;12.70;1.00;;;;;;5134869;27;20976;-68
2021/05/21 06:05:33;;;;;;;57.30;2.20;;;12.80;1.00;;;;;;5135165;27;20448;-68
2021/05/21 06:08:01;;;;;;;57.50;2.43;;;12.90;1.00;;;;;;5131836;27;20451;-67
2021/05/21 06:10:29;;;;;;;57.30;2.60;;;13.00;1.00;;;;;;5135050;27;20479;-66
2021/05/21 06:13:00;;;;;;;57.37;2.30;;;13.10;1.00;;;;;;5134585;27;20475;-67
2021/05/21 06:15:26;;;;;;;57.40;2.20;;;13.20;1.00;;;;;;5134933;27;20444;-67
2021/05/21 06:17:54;;;;;;;57.37;2.30;;;13.30;1.00;;;;;;5134099;27;20476;-67
2021/05/21 06:20:20;;;;;;;57.17;2.40;;;13.50;1.00;;;;;;5135277;27;20861;-68
2021/05/21 06:22:47;;;;;;;57.50;2.40;;;13.70;1.00;;;;;;5134589;27;20467;-67
2021/05/21 06:25:15;;;;;;;57.37;2.40;;;13.80;1.00;;;;;;5134510;27;20454;-68
2021/05/21 06:27:43;;;;;;;57.07;2.33;;;13.90;1.00;;;;;;5135233;27;20445;-67
2021/05/21 06:30:11;;;;;;;57.40;2.50;;;14.00;1.00;;;;;;5134797;27;20486;-68
2021/05/21 06:32:38;;;;;;;57.03;2.20;;;14.10;1.00;;;;;;5134567;27;20665;-67
2021/05/21 06:35:05;;;;;;;56.93;2.27;;;14.20;1.00;;;;;;5134497;27;20483;-66
2021/05/21 06:37:32;;;;;;;57.37;2.33;;;14.30;1.00;;;;;;5131300;27;20941;-67
2021/05/21 06:39:58;;;;;;;57.80;2.40;;;14.40;1.00;;;;;;5134420;27;21005;-67
2021/05/21 06:42:25;;;;;;;57.47;2.20;;;14.50;1.00;;;;;;5134319;27;20468;-67
2021/05/21 06:44:52;;;;;;;57.13;2.30;;;14.60;1.00;;;;;;5134413;27;20512;-68
2021/05/21 06:47:18;;;;;;;57.27;2.33;;;14.60;1.00;;;;;;5134605;27;20612;-67
2021/05/21 06:49:47;;;;;;;57.17;2.30;;;14.60;1.00;;;;;;5135135;27;20458;-66
2021/05/21 06:52:13;;;;;;;57.17;1.97;;;14.70;1.00;;;;;;5133860;27;20851;-67
2021/05/21 06:54:40;;;;;;;56.67;2.10;;;14.70;1.00;;;;;;5134494;27;20535;-68
2021/05/21 06:57:06;;;;;;;56.97;2.07;;;14.70;1.00;;;;;;5134463;27;20448;-68
2021/05/21 06:59:32;;;;;;;56.97;2.10;;;14.80;1.00;;;;;;5134514;27;20452;-67
2021/05/21 07:02:00;;;;;;;57.07;2.23;;;14.90;1.00;;;;;;5132780;27;20553;-66
2021/05/21 07:04:26;;;;;;;57.27;2.20;;;15.00;1.00;;;;;;5131574;27;21004;-67
2021/05/21 07:06:52;;;;;;;57.50;2.40;;;15.10;1.00;;;;;;5133683;27;20531;-66
2021/05/21 07:09:19;;;;;;;57.13;2.20;;;15.20;1.00;;;;;;5134534;27;20480;-67
2021/05/21 07:11:45;;;;;;;58.23;3.17;;;15.30;1.00;;;;;;5133151;27;20564;-66
2021/05/21 07:14:13;;;;;;;57.47;2.20;;;15.40;1.00;;;;;;5133664;27;20535;-67
2021/05/21 07:16:40;;;;;;;56.93;2.23;;;15.50;1.00;;;;;;5133043;27;20449;-67
2021/05/21 07:19:07;;;;;;;57.27;2.50;;;15.60;1.00;;;;;;5131624;27;20455;-67
2021/05/21 07:21:34;;;;;;;57.17;2.33;;;15.60;1.00;;;;;;5133302;27;20480;-67
2021/05/21 07:24:00;;;;;;;57.33;2.77;;;15.60;1.00;;;;;;5133405;27;20476;-67
2021/05/21 07:26:28;;;;;;;57.07;2.30;;;15.60;1.00;;;;;;5133919;27;20449;-67
2021/05/21 07:28:55;;;;;;;57.17;2.10;;;15.70;1.00;;;;;;5133518;27;20444;-67
2021/05/21 07:31:26;;;;;;;57.20;2.40;;;15.70;1.00;;;;;;5133462;27;20572;-67
2021/05/21 07:33:52;;;;;;;57.80;2.50;;;15.70;1.00;;;;;;5132870;27;20497;-66
2021/05/21 07:36:20;;;;;;;57.07;2.20;;;15.80;1.00;;;;;;5133607;27;20820;-66
2021/05/21 07:38:46;;;;;;;58.30;2.80;;;15.80;1.00;;;;;;5133709;27;20853;-67
2021/05/21 07:41:13;;;;;;;57.17;2.30;;;15.90;1.00;;;;;;5133379;27;20500;-67
2021/05/21 07:43:40;;;;;;;57.50;2.13;;;15.90;1.00;;;;;;5132771;27;20440;-66
2021/05/21 07:46:08;;;;;;;57.30;2.23;;;16.00;1.00;;;;;;5133202;27;20944;-66
2021/05/21 07:48:34;;;;;;;56.93;2.23;;;16.00;1.00;;;;;;5133106;27;20475;-66
2021/05/21 07:51:02;;;;;;;57.20;2.00;;;16.00;1.00;;;;;;5130634;27;20484;-66
2021/05/21 07:53:31;;;;;;;57.13;2.07;;;16.00;1.00;;;;;;5132859;27;20450;-66
2021/05/21 07:55:57;;;;;;;56.93;2.30;;;16.00;1.00;;;;;;5133055;27;20456;-68
2021/05/21 07:58:25;;;;;;;57.07;2.50;;;16.10;1.00;;;;;;5133387;27;20445;-67
2021/05/21 08:00:52;;;;;;;58.30;2.40;;;16.10;1.00;;;;;;5132975;27;20440;-66
2021/05/21 08:03:18;;;;;;;57.37;2.30;;;16.20;1.00;;;;;;5132580;27;20448;-66
2021/05/21 08:05:45;;;;;;;57.27;2.43;;;16.20;1.00;;;;;;5132755;27;20454;-67
2021/05/21 08:08:12;;;;;;;57.30;2.40;;;16.20;1.00;;;;;;5133093;27;20457;-66
2021/05/21 08:10:39;;;;;;;57.57;2.20;;;16.30;1.00;;;;;;5132976;27;20490;-67
2021/05/21 08:13:05;;;;;;;59.73;2.50;;;16.30;1.00;;;;;;5132658;27;20470;-66
2021/05/21 08:15:32;;;;;;;57.37;2.10;;;16.30;1.00;;;;;;5132429;27;20445;-67
2021/05/21 08:17:58;;;;;;;56.97;2.10;;;16.30;1.00;;;;;;5132914;27;20451;-67
2021/05/21 08:20:25;;;;;;;56.87;2.10;;;16.30;1.00;;;;;;5132152;27;20445;-65
2021/05/21 08:22:51;;;;;;;57.80;2.40;;;16.30;1.00;;;;;;5130242;27;20465;-67
2021/05/21 08:25:19;;;;;;;57.17;2.10;;;16.40;1.00;;;;;;5132616;27;20524;-65
2021/05/21 08:27:46;;;;;;;57.17;2.10;;;16.40;1.00;;;;;;5132184;27;20449;-68
2021/05/21 08:30:13;;;;;;;57.30;2.10;;;16.40;1.00;;;;;;5132137;27;20452;-68
2021/05/21 08:32:40;;;;;;;57.40;2.27;;;16.40;1.00;;;;;;5132200;27;20564;-67
2021/05/21 08:35:07;;;;;;;56.87;2.20;;;16.40;1.00;;;;;;5132300;27;20876;-67
2021/05/21 08:37:33;;;;;;;56.87;2.10;;;16.40;1.00;;;;;;5132516;27;20841;-67
2021/05/21 08:40:00;;;;;;;57.10;2.10;;;16.40;1.00;;;;;;5131785;27;20540;-67
2021/05/21 08:42:31;;;;;;;57.10;2.20;;;16.40;1.00;;;;;;5117416;27;20834;-67
2021/05/21 08:45:00;;;;;;;57.37;2.23;;;16.40;1.00;;;;;;5126885;28;21008;-66
2021/05/21 08:47:26;;;;;;;57.37;2.20;;;16.40;1.00;;;;;;5132666;27;20878;-66
2021/05/21 08:49:52;;;;;;;57.03;2.10;;;16.40;1.00;;;;;;5132381;27;20485;-64
2021/05/21 08:52:19;;;;;;;57.27;2.37;;;16.40;1.00;;;;;;5132076;27;20987;-65
2021/05/21 08:54:46;;;;;;;57.07;2.30;;;16.40;1.00;;;;;;5131960;27;21024;-65
2021/05/21 08:57:12;;;;;;;57.30;2.50;;;16.30;1.00;;;;;;5132174;27;20450;-65
2021/05/21 08:59:38;;;;;;;57.27;2.07;;;16.30;1.00;;;;;;5132121;28;20525;-65
2021/05/21 09:02:06;;;;;;;57.13;2.40;;;16.30;1.00;;;;;;5131665;27;21063;-65
2021/05/21 09:04:46;;;;;;;57.40;2.53;;;16.30;1.00;;;;;;5132015;27;20946;-65
2021/05/21 09:07:21;;;;;;;56.87;2.20;;;16.30;1.00;;;;;;5132258;27;20453;-65
2021/05/21 09:09:47;;;;;;;57.27;2.10;;;16.30;1.00;;;;;;5132068;27;20455;-65
2021/05/21 09:12:14;;;;;;;56.97;2.20;;;16.20;1.00;;;;;;5130326;27;20485;-64
2021/05/21 09:14:41;;;;;;;57.10;2.30;;;16.20;1.00;;;;;;5130301;27;20454;-65
2021/05/21 09:17:23;;;;;;;57.17;2.20;;;16.20;1.00;;;;;;5132220;27;20450;-65
2021/05/21 09:19:49;;;;;;;56.97;2.30;;;16.20;1.00;;;;;;5132142;27;20450;-64
2021/05/21 09:22:15;;;;;;;57.27;2.10;;;16.20;1.00;;;;;;5131566;27;21034;-66
2021/05/21 09:24:45;;;;;;;57.27;2.27;;;16.20;1.00;;;;;;5131816;27;20535;-65
2021/05/21 09:27:13;;;;;;;56.93;2.20;;;16.20;1.00;;;;;;5131862;27;20453;-65
2021/05/21 09:29:44;;;;;;;56.83;2.03;;;16.30;1.00;;;;;;5132193;27;20452;-65
2021/05/21 09:32:32;;;;;;;57.90;2.20;;;16.30;1.00;;;;;;5131529;27;20484;-65
2021/05/21 09:35:01;;;;;;;57.17;2.07;;;16.40;1.00;;;;;;5126912;27;20986;-64
2021/05/21 09:37:28;;;;;;;56.67;2.10;;;16.50;1.00;;;;;;5131965;27;20478;-66
2021/05/21 09:40:06;;;;;;;57.03;2.10;;;16.50;1.00;;;;;;5131766;27;21000;-65
2021/05/21 09:42:47;;;;;;;57.03;2.07;;;16.60;1.00;;;;;;5131515;27;20460;-65
2021/05/21 09:45:18;;;;;;;56.97;2.20;;;16.60;1.00;;;;;;5128575;27;20542;-64
2021/05/21 09:47:54;;;;;;;56.90;2.20;;;16.50;1.00;;;;;;5132039;27;20442;-65
2021/05/21 09:50:33;;;;;;;57.03;2.20;;;16.40;1.00;;;;;;5131998;27;20468;-65
2021/05/21 09:53:02;;;;;;;57.17;2.10;;;16.20;1.00;;;;;;5135140;27;20502;-65
2021/05/21 09:55:35;;;;;;;57.17;2.13;;;16.10;1.00;;;;;;5135182;27;20456;-65
2021/05/21 09:58:02;;;;;;;57.27;2.20;;;16.10;1.00;;;;;;5135672;27;20547;-65
2021/05/21 10:00:28;;;;;;;57.13;2.30;;;16.20;1.00;;;;;;5135584;27;20496;-65
2021/05/21 10:02:56;;;;;;;57.30;2.20;;;16.30;1.00;;;;;;5134829;27;20511;-66
2021/05/21 10:05:23;;;;;;;56.87;2.20;;;16.40;1.00;;;;;;5135128;27;20456;-65
2021/05/21 10:07:52;;;;;;;57.10;2.17;;;16.50;1.00;;;;;;5135438;27;20449;-65
2021/05/21 10:10:21;;;;;;;58.20;2.20;;;16.60;1.00;;;;;;5135139;27;20597;-66
2021/05/21 10:12:48;;;;;;;56.83;2.10;;;16.60;1.00;;;;;;5134856;27;21001;-65
2021/05/21 10:15:14;;;;;;;57.20;2.20;;;16.70;1.00;;;;;;5133719;27;20954;-66
2021/05/21 10:17:42;;;;;;;57.30;2.13;;;16.60;1.00;;;;;;5135425;27;20528;-66
2021/05/21 10:20:13;;;;;;;57.80;2.53;;;16.60;1.00;;;;;;5132536;27;20442;-66
2021/05/21 10:22:41;;;;;;;57.10;2.10;;;16.60;1.00;;;;;;5134341;27;20874;-65
2021/05/21 10:25:11;;;;;;;57.37;2.30;;;;;;;;;;5134737;27;20437;-65
2021/05/21 10:27:42;;;;;;;56.87;2.17;;;16.40;1.00;;;;;;5135188;27;20526;-65
2021/05/21 10:30:09;;;;;;;57.13;2.20;;;16.50;1.00;;;;;;5135083;27;21002;-65
2021/05/21 10:32:36;;;;;;;57.07;2.20;;;16.50;1.00;;;;;;5134265;27;20884;-65
2021/05/21 10:35:19;;;;;;;57.30;2.40;;;16.50;1.00;;;;;;5134442;27;20445;-66
2021/05/21 10:37:47;;;;;;;57.10;2.20;;;16.60;1.00;;;;;;5134862;27;20440;-64
2021/05/21 10:40:22;;;;;;;56.93;2.23;;;16.60;1.00;;;;;;5134728;27;20831;-65
2021/05/21 10:42:50;;;;;;;57.07;2.20;;;16.60;1.00;;;;;;5134256;27;20464;-65
2021/05/21 10:45:18;;;;;;;57.37;2.37;;;16.70;1.00;;;;;;5134192;27;20545;-65
2021/05/21 10:47:46;;;;;;;57.17;2.20;;;16.70;1.00;;;;;;5134301;27;20457;-65
2021/05/21 10:50:20;;;;;;;56.87;2.40;;;16.70;1.00;;;;;;5133772;27;20444;-65
2021/05/21 10:52:56;;;;;;;56.77;2.10;;;16.70;1.00;;;;;;5130975;27;21030;-65
2021/05/21 10:55:46;;;;;;;56.77;2.07;;;16.80;1.00;;;;;;5133880;27;20442;-66
2021/05/21 10:58:27;;;;;;;57.47;2.43;;;16.80;1.00;;;;;;5134023;27;20815;-64
2021/05/21 11:01:32;;;;;;;57.20;2.10;;;16.90;1.00;;;;;;5134043;27;20453;-65
2021/05/21 11:04:20;;;;;;;56.77;2.03;;;17.00;1.00;;;;;;5132929;27;20515;-65
2021/05/21 11:06:51;;;;;;;57.17;2.67;;;17.10;1.00;;;;;;5134387;27;20882;-66
2021/05/21 11:09:20;;;;;;;57.03;2.10;;;17.20;1.00;;;;;;5134225;27;20442;-65
2021/05/21 11:11:52;;;;;;;57.20;2.10;;;17.40;1.00;;;;;;5133711;27;20487;-66
2021/05/21 11:14:29;;;;;;;57.03;2.20;;;17.50;1.00;;;;;;5133910;27;20458;-66
2021/05/21 11:16:56;;;;;;;57.87;2.53;;;17.60;1.00;;;;;;5133637;27;20450;-66
2021/05/21 11:19:24;;;;;;;57.07;2.30;;;17.80;1.00;;;;;;5133817;27;20542;-66
2021/05/21 11:22:04;;;;;;;56.97;2.10;;;18.00;1.00;;;;;;5129977;27;20478;-66
2021/05/21 11:24:42;;;;;;;57.13;2.37;;;18.10;1.00;;;;;;5133586;27;20940;-66
2021/05/21 11:27:11;;;;;;;57.13;2.00;;;18.20;1.00;;;;;;5133489;27;20499;-65
2021/05/21 11:29:45;;;;;;;57.40;2.17;;;18.10;1.00;;;;;;5133463;27;20448;-65
2021/05/21 11:32:12;;;;;;;56.57;2.00;;;18.20;1.00;;;;;;5133355;27;20489;-64
2021/05/21 11:34:39;;;;;;;56.87;2.00;;;18.20;1.00;;;;;;5133444;27;20530;-66
2021/05/21 11:37:06;;;;;;;56.97;2.03;;;18.30;1.00;;;;;;5133602;27;20487;-66
2021/05/21 11:39:34;;;;;;;57.10;2.10;;;18.40;1.00;;;;;;5133140;27;20455;-66
2021/05/21 11:42:04;;;;;;;56.60;2.00;;;18.60;1.00;;;;;;5132665;27;21039;-65
2021/05/21 11:44:32;;;;;;;57.50;2.20;;;18.70;1.00;;;;;;5133398;27;20883;-66
2021/05/21 11:47:00;;;;;;;57.37;2.20;;;19.00;1.00;;;;;;5133393;27;20811;-66
2021/05/21 11:49:27;;;;;;;57.10;1.90;;;19.10;1.00;;;;;;5133455;27;20451;-64
2021/05/21 11:51:58;;;;;;;56.73;1.90;;;19.20;1.00;;;;;;5131926;27;20490;-66
2021/05/21 11:54:26;;;;;;;56.47;1.90;;;19.10;1.00;;;;;;5130492;27;20479;-66
2021/05/21 11:56:53;;;;;;;56.90;2.00;;;19.10;1.00;;;;;;5132896;27;20451;-66
2021/05/21 11:59:22;;;;;;;57.20;2.10;;;19.10;1.00;;;;;;5133018;27;20503;-66
2021/05/21 12:01:50;;;;;;;56.97;2.10;;;19.00;1.00;;;;;;5133352;27;20471;-65
2021/05/21 12:04:18;;;;;;;57.03;2.00;;;18.70;1.00;;;;;;5133274;27;20543;-66
2021/05/21 12:06:47;;;;;;;57.17;2.07;;;18.40;1.00;;;;;;5132996;27;20525;-66
2021/05/21 12:09:15;;;;;;;57.17;2.30;;;18.20;1.00;;;;;;5133149;27;20489;-66
2021/05/21 12:11:43;;;;;;;56.67;2.00;;;18.10;1.00;;;;;;5133243;27;20488;-67
2021/05/21 12:14:10;;;;;;;57.20;2.30;;;18.10;1.00;;;;;;5132695;27;20859;-65
2021/05/21 12:16:38;;;;;;;57.17;2.00;;;18.00;1.00;;;;;;5132964;27;20528;-66
2021/05/21 12:19:05;;;;;;;56.87;2.10;;;18.00;1.00;;;;;;5132940;27;20504;-66
2021/05/21 12:21:37;;;;;;;56.37;2.10;;;18.00;1.00;;;;;;5132749;27;20879;-66
2021/05/21 12:24:04;;;;;;;57.17;1.90;;;18.00;1.00;;;;;;5129125;27;21074;-66
2021/05/21 12:26:33;;;;;;;56.73;1.93;;;18.10;1.00;;;;;;5132621;27;20447;-66
2021/05/21 12:29:01;;;;;;;57.30;2.10;;;18.10;1.00;;;;;;5132719;27;20533;-66
2021/05/21 12:31:29;;;;;;;57.07;2.10;;;18.10;1.00;;;;;;5132563;27;20925;-66
2021/05/21 12:33:56;;;;;;;57.13;2.17;;;18.00;1.00;;;;;;5131865;27;20538;-66
2021/05/21 12:36:25;;;;;;;57.27;2.03;;;17.90;1.00;;;;;;5132683;27;20452;-66
2021/05/21 12:38:53;;;;;;;56.83;2.23;;;17.80;1.00;;;;;;5132723;27;20556;-66
2021/05/21 12:41:23;;;;;;;57.20;1.93;;;17.70;1.00;;;;;;5132533;27;20580;-66
2021/05/21 12:43:50;;;;;;;56.87;2.00;;;17.70;1.00;;;;;;5131937;27;20976;-67
2021/05/21 12:46:17;;;;;;;57.07;2.17;;;17.60;1.00;;;;;;5132246;27;20454;-64
2021/05/21 12:48:45;;;;;;;58.67;2.37;;;17.70;1.00;;;;;;5132403;27;20824;-66
2021/05/21 12:51:16;;;;;;;56.97;2.87;;;17.80;1.00;;;;;;5132416;27;20597;-67